createdAt,value
2019-01-19T00:01:04.273Z,28.17
2019-01-19T00:03:51.459Z,31.23
2019-01-19T00:06:51.006Z,34.20
2019-01-19T00:09:29.916Z,37.10
2019-01-19T00:12:23.142Z,32.57
2019-01-19T00:14:53.796Z,33.90
2019-01-19T00:17:41.627Z,32.73
2019-01-19T00:20:38.506Z,29.83
2019-01-19T00:23:17.232Z,32.63
2019-01-19T00:25:52.656Z,32.73
2019-01-19T00:28:32.607Z,32.43
2019-01-19T00:31:21.292Z,29.00
2019-01-19T00:34:11.794Z,26.80
2019-01-19T00:37:01.764Z,33.07
2019-01-19T00:39:49.127Z,33.20
2019-01-19T00:42:25.653Z,30.77
2019-01-19T00:45:06.377Z,30.10
2019-01-19T00:47:41.107Z,29.83
2019-01-19T00:50:20.006Z,30.97
2019-01-19T00:52:58.499Z,26.37
2019-01-19T00:55:37.880Z,25.33
2019-01-19T00:58:25.342Z,30.80
2019-01-19T01:01:00.194Z,31.70
2019-01-19T01:03:50.627Z,35.73
2019-01-19T01:06:37.776Z,26.50
2019-01-19T01:09:34.009Z,29.37
2019-01-19T01:12:05.331Z,31.27
2019-01-19T01:14:51.354Z,32.57
2019-01-19T01:17:22.988Z,27.97
2019-01-19T01:19:59.899Z,27.57
2019-01-19T01:22:32.126Z,28.93
2019-01-19T01:25:13.757Z,30.90
2019-01-19T01:27:47.718Z,30.20
2019-01-19T01:30:38.092Z,31.07
2019-01-19T01:33:34.562Z,27.17
2019-01-19T01:36:30.882Z,32.90
2019-01-19T01:39:04.936Z,35.23
2019-01-19T01:41:46.356Z,28.27
2019-01-19T01:44:20.066Z,30.23
2019-01-19T01:47:11.994Z,30.50
2019-01-19T01:50:00.920Z,29.57
2019-01-19T01:52:46.950Z,31.73
2019-01-19T01:55:21.014Z,28.57
2019-01-19T01:58:14.174Z,27.43
2019-01-19T02:01:00.421Z,26.03
2019-01-19T02:03:47.586Z,27.50
2019-01-19T02:06:22.767Z,30.03
2019-01-19T02:09:12.924Z,26.53
2019-01-19T02:11:57.607Z,29.17
2019-01-19T02:14:32.160Z,31.53
2019-01-19T02:17:28.641Z,33.87
2019-01-19T02:20:22.182Z,31.60
2019-01-19T02:23:08.264Z,29.73
2019-01-19T02:26:01.208Z,27.73
2019-01-19T02:28:33.308Z,31.07
2019-01-19T02:31:38.614Z,33.23
2019-01-19T02:34:34.838Z,27.07
2019-01-19T02:37:22.031Z,29.77
2019-01-19T02:40:19.547Z,28.70
2019-01-19T02:42:52.156Z,29.87
2019-01-19T02:45:33.698Z,28.97
2019-01-19T02:48:29.859Z,31.47
2019-01-19T02:51:00.963Z,29.47
2019-01-19T02:53:35.240Z,31.87
2019-01-19T02:56:25.772Z,28.40
2019-01-19T02:59:02.681Z,29.50
2019-01-19T03:01:36.557Z,32.70
2019-01-19T03:04:11.945Z,31.87
2019-01-19T03:06:57.072Z,29.87
2019-01-19T03:09:36.441Z,28.77
2019-01-19T03:12:12.795Z,29.67
2019-01-19T03:15:11.992Z,27.67
2019-01-19T03:18:05.010Z,33.10
2019-01-19T03:20:45.089Z,27.53
2019-01-19T03:23:27.439Z,26.90
2019-01-19T03:26:07.906Z,31.80
2019-01-19T03:28:49.779Z,28.83
2019-01-19T03:31:35.565Z,28.70
2019-01-19T03:34:34.832Z,27.30
2019-01-19T03:37:13.147Z,27.20
2019-01-19T03:40:06.333Z,26.40
2019-01-19T03:42:52.275Z,30.83
2019-01-19T03:45:57.596Z,30.37
2019-01-19T03:48:50.559Z,25.00
2019-01-19T03:51:36.812Z,26.23
2019-01-19T03:54:14.108Z,28.43
2019-01-19T03:57:01.263Z,26.80
2019-01-19T03:59:54.356Z,24.63
2019-01-19T04:02:35.107Z,24.90
2019-01-19T04:05:24.555Z,25.97
2019-01-19T04:08:23.717Z,25.73
2019-01-19T04:11:13.670Z,26.33
2019-01-19T04:13:48.796Z,25.03
2019-01-19T04:16:42.193Z,26.77
2019-01-19T04:19:27.993Z,20.77
2019-01-19T04:22:10.818Z,27.50
2019-01-19T04:24:45.722Z,25.53
2019-01-19T04:27:13.793Z,27.53
2019-01-19T04:29:42.197Z,25.07
2019-01-19T04:32:10.415Z,25.50
2019-01-19T04:34:38.479Z,20.70
2019-01-19T04:37:06.568Z,25.63
2019-01-19T04:39:34.733Z,25.50
2019-01-19T04:42:03.654Z,24.93
2019-01-19T04:44:31.733Z,23.43
2019-01-19T04:46:59.803Z,23.43
2019-01-19T04:49:27.912Z,26.33
2019-01-19T04:51:55.963Z,26.60
2019-01-19T04:54:24.077Z,24.47
2019-01-19T04:56:52.141Z,24.77
2019-01-19T04:59:20.199Z,24.73
2019-01-19T05:01:48.303Z,21.30
2019-01-19T05:04:16.369Z,26.67
2019-01-19T05:06:44.432Z,24.03
2019-01-19T05:09:12.471Z,26.63
2019-01-19T05:11:40.529Z,25.30
2019-01-19T05:14:08.635Z,24.63
2019-01-19T05:16:36.703Z,24.67
2019-01-19T05:19:04.831Z,25.77
2019-01-19T05:21:32.873Z,26.30
2019-01-19T05:24:01.034Z,25.57
2019-01-19T05:26:29.139Z,21.60
2019-01-19T05:28:57.280Z,26.63
2019-01-19T05:31:25.416Z,22.63
2019-01-19T05:33:53.480Z,24.17
2019-01-19T05:36:21.935Z,28.73
2019-01-19T05:38:50.054Z,30.37
2019-01-19T05:41:18.122Z,26.70
2019-01-19T05:43:46.382Z,22.97
2019-01-19T05:46:21.400Z,27.00
2019-01-19T05:48:44.205Z,25.70
2019-01-19T05:51:12.512Z,23.67
2019-01-19T05:53:40.577Z,24.37
2019-01-19T05:56:08.628Z,27.37
2019-01-19T05:58:36.730Z,25.43
2019-01-19T06:01:04.871Z,23.63
2019-01-19T06:03:32.926Z,23.90
2019-01-19T06:06:01.508Z,25.67
2019-01-19T06:08:29.595Z,27.77
2019-01-19T06:10:57.678Z,25.00
2019-01-19T06:13:25.665Z,25.60
2019-01-19T06:15:53.755Z,26.57
2019-01-19T06:18:21.819Z,23.87
2019-01-19T06:20:50.307Z,27.37
2019-01-19T06:23:18.358Z,27.20
2019-01-19T06:25:46.471Z,26.50
2019-01-19T06:28:14.526Z,26.67
2019-01-19T06:30:42.628Z,25.53
2019-01-19T06:33:10.689Z,28.77
2019-01-19T06:35:38.779Z,26.73
2019-01-19T06:38:06.900Z,25.43
2019-01-19T06:40:35.039Z,27.63
2019-01-19T06:43:03.146Z,23.30
2019-01-19T06:45:31.309Z,28.83
2019-01-19T06:47:59.579Z,25.83
2019-01-19T06:50:27.749Z,27.57
2019-01-19T06:52:55.874Z,25.17
2019-01-19T06:55:25.639Z,24.53
2019-01-19T06:57:53.751Z,25.10
2019-01-19T07:00:23.375Z,24.53
2019-01-19T07:02:51.473Z,26.13
2019-01-19T07:05:19.603Z,24.83
2019-01-19T07:07:47.721Z,25.20
2019-01-19T07:10:16.860Z,25.30
2019-01-19T07:12:45.058Z,25.40
2019-01-19T07:15:13.562Z,22.90
2019-01-19T07:17:41.629Z,24.10
2019-01-19T07:20:16.935Z,25.70
2019-01-19T07:22:45.199Z,24.27
2019-01-19T07:25:13.488Z,26.23
2019-01-19T07:27:41.554Z,26.30
2019-01-19T07:30:11.170Z,22.57
2019-01-19T07:32:39.399Z,23.73
2019-01-19T07:35:07.842Z,28.67
2019-01-19T07:37:35.911Z,26.63
2019-01-19T07:40:04.504Z,24.73
2019-01-19T07:42:34.006Z,27.13
2019-01-19T07:45:02.187Z,28.00
2019-01-19T07:47:30.380Z,24.50
2019-01-19T07:49:58.486Z,31.60
2019-01-19T07:52:26.552Z,24.23
2019-01-19T07:54:54.656Z,26.77
2019-01-19T07:57:22.708Z,26.03
2019-01-19T07:59:50.951Z,29.70
2019-01-19T08:02:18.999Z,41.97
2019-01-19T08:04:47.137Z,37.70
2019-01-19T08:07:17.437Z,31.90
2019-01-19T08:09:45.001Z,29.87
2019-01-19T08:12:13.079Z,26.27
2019-01-19T08:14:41.167Z,25.43
2019-01-19T08:17:09.498Z,21.60
2019-01-19T08:19:37.620Z,23.90
2019-01-19T08:22:05.760Z,21.30
2019-01-19T08:24:33.838Z,19.20
2019-01-19T08:27:01.886Z,22.10
2019-01-19T08:29:30.091Z,20.10
2019-01-19T08:31:58.382Z,22.90
2019-01-19T08:34:26.466Z,20.40
2019-01-19T08:36:54.700Z,23.10
2019-01-19T08:39:22.800Z,21.00
2019-01-19T08:41:50.931Z,20.77
2019-01-19T08:44:18.983Z,16.53
2019-01-19T08:46:47.087Z,17.47
2019-01-19T08:49:15.147Z,17.23
2019-01-19T08:51:43.257Z,17.90
2019-01-19T08:54:11.310Z,20.00
2019-01-19T08:56:39.413Z,19.13
2019-01-19T08:59:07.559Z,18.47
2019-01-19T09:01:35.631Z,19.93
2019-01-19T09:04:03.730Z,17.10
2019-01-19T09:06:31.930Z,18.80
2019-01-19T09:09:00.089Z,18.80
2019-01-19T09:11:28.192Z,18.67
2019-01-19T09:13:56.321Z,17.13
2019-01-19T09:16:24.389Z,17.63
2019-01-19T09:18:52.446Z,16.60
2019-01-19T09:21:20.602Z,17.73
2019-01-19T09:24:13.905Z,18.40
2019-01-19T09:26:42.043Z,18.80
2019-01-19T09:29:10.108Z,18.27
2019-01-19T09:31:38.171Z,23.80
2019-01-19T09:34:06.359Z,20.30
2019-01-19T09:36:34.602Z,19.73
2019-01-19T09:39:02.679Z,21.37
2019-01-19T09:41:30.787Z,22.27
2019-01-19T09:43:58.892Z,18.43
2019-01-19T09:46:27.036Z,18.80
2019-01-19T09:48:55.140Z,21.73
2019-01-19T09:51:23.200Z,22.30
2019-01-19T09:53:51.550Z,21.07
2019-01-19T09:56:19.622Z,19.80
2019-01-19T09:58:47.688Z,19.97
2019-01-19T10:01:15.793Z,18.47
2019-01-19T10:03:43.906Z,16.93
2019-01-19T10:06:12.008Z,17.77
2019-01-19T10:08:40.379Z,17.90
2019-01-19T10:11:08.872Z,16.67
2019-01-19T10:13:36.962Z,16.53
2019-01-19T10:16:05.003Z,15.90
2019-01-19T10:18:33.075Z,13.97
2019-01-19T10:21:01.440Z,14.93
2019-01-19T10:23:29.575Z,14.97
2019-01-19T10:25:57.623Z,13.27
2019-01-19T10:28:25.794Z,18.43
2019-01-19T10:30:54.026Z,13.70
2019-01-19T10:33:22.213Z,15.97
2019-01-19T10:35:50.471Z,17.60
2019-01-19T10:38:18.604Z,16.27
2019-01-19T10:40:46.851Z,13.93
2019-01-19T10:43:14.942Z,15.20
2019-01-19T10:45:43.068Z,16.77
2019-01-19T10:48:11.216Z,17.73
2019-01-19T10:50:39.258Z,15.63
2019-01-19T10:53:07.359Z,14.10
2019-01-19T10:55:35.539Z,14.97
2019-01-19T10:58:03.650Z,12.77
2019-01-19T11:00:31.772Z,13.33
2019-01-19T11:02:59.946Z,13.87
2019-01-19T11:05:28.348Z,15.13
2019-01-19T11:08:03.194Z,11.80
2019-01-19T11:10:28.575Z,10.80
2019-01-19T11:12:56.992Z,12.87
2019-01-19T11:15:25.063Z,13.30
2019-01-19T11:17:53.378Z,12.20
2019-01-19T11:20:25.781Z,13.73
2019-01-19T11:22:53.969Z,13.43
2019-01-19T11:25:22.090Z,11.03
2019-01-19T11:27:50.163Z,11.57
2019-01-19T11:30:22.653Z,17.03
2019-01-19T11:32:51.021Z,11.97
2019-01-19T11:35:19.099Z,12.23
2019-01-19T11:37:47.328Z,12.63
2019-01-19T11:40:19.591Z,12.23
2019-01-19T11:42:47.927Z,10.40
2019-01-19T11:45:17.008Z,10.80
2019-01-19T11:47:45.172Z,10.97
2019-01-19T11:50:16.552Z,10.53
2019-01-19T11:52:44.762Z,10.73
2019-01-19T11:55:15.121Z,12.23
2019-01-19T11:57:43.204Z,12.17
2019-01-19T12:00:14.081Z,11.17
2019-01-19T12:02:42.346Z,9.23
2019-01-19T12:05:10.531Z,10.67
2019-01-19T12:07:38.706Z,11.47
2019-01-19T12:10:08.150Z,10.43
2019-01-19T12:12:36.231Z,9.33
2019-01-19T12:15:04.964Z,15.23
2019-01-19T12:17:33.019Z,11.27
2019-01-19T12:20:01.008Z,10.50
2019-01-19T12:22:29.156Z,10.37
2019-01-19T12:24:57.238Z,11.00
2019-01-19T12:27:25.557Z,15.73
2019-01-19T12:29:53.905Z,14.47
2019-01-19T12:32:21.968Z,12.63
2019-01-19T12:34:50.029Z,12.00
2019-01-19T12:37:18.406Z,9.63
2019-01-19T12:39:46.608Z,10.33
2019-01-19T12:42:15.023Z,13.50
2019-01-19T12:44:43.230Z,10.03
2019-01-19T12:47:11.275Z,9.73
2019-01-19T12:49:39.587Z,10.33
2019-01-19T12:52:07.847Z,12.03
2019-01-19T12:54:35.911Z,31.30
2019-01-19T12:57:04.006Z,9.97
2019-01-19T12:59:32.169Z,10.30
2019-01-19T13:02:00.359Z,8.40
2019-01-19T13:04:28.522Z,13.33
2019-01-19T13:07:05.246Z,9.50
2019-01-19T13:09:38.067Z,12.00
2019-01-19T13:12:15.283Z,9.33
2019-01-19T13:14:46.815Z,9.47
2019-01-19T13:17:36.883Z,11.07
2019-01-19T13:20:30.256Z,12.00
2019-01-19T13:23:26.677Z,14.77
2019-01-19T13:26:13.860Z,8.57
2019-01-19T13:29:12.930Z,10.17
2019-01-19T13:31:45.211Z,12.00
2019-01-19T13:34:41.509Z,9.93
2019-01-19T13:37:34.784Z,8.43
2019-01-19T13:40:19.131Z,10.03
2019-01-19T13:43:06.315Z,12.47
2019-01-19T13:45:52.339Z,10.70
2019-01-19T13:48:38.479Z,10.00
2019-01-19T13:51:21.656Z,12.10
2019-01-19T13:54:08.817Z,10.97
2019-01-19T13:56:44.146Z,9.17
2019-01-19T13:59:17.290Z,11.50
2019-01-19T14:02:03.265Z,10.30
2019-01-19T14:04:55.443Z,9.70
2019-01-19T14:07:31.488Z,9.37
2019-01-19T14:10:37.151Z,14.47
2019-01-19T14:13:19.376Z,9.30
2019-01-19T14:15:59.483Z,10.33
2019-01-19T14:18:33.527Z,10.43
2019-01-19T14:21:33.043Z,10.97
2019-01-19T14:24:20.244Z,36.73
2019-01-19T14:26:52.790Z,88.67
2019-01-19T14:29:33.033Z,126.47
2019-01-19T14:32:14.195Z,17.33
2019-01-19T14:35:16.322Z,15.50
2019-01-19T14:38:02.110Z,12.10
2019-01-19T14:40:49.330Z,10.93
2019-01-19T14:43:48.767Z,16.83
2019-01-19T14:46:41.983Z,11.77
2019-01-19T14:49:35.441Z,9.67
2019-01-19T14:52:28.576Z,11.67
2019-01-19T14:55:33.900Z,9.33
2019-01-19T14:58:06.834Z,8.40
2019-01-19T15:00:44.658Z,9.97
2019-01-19T15:03:31.899Z,12.13
2019-01-19T15:06:21.883Z,12.57
2019-01-19T15:08:55.726Z,13.07
2019-01-19T15:11:28.815Z,10.63
2019-01-19T15:14:19.311Z,11.03
2019-01-19T15:17:05.486Z,19.90
2019-01-19T15:20:01.735Z,21.47
2019-01-19T15:22:47.760Z,9.97
2019-01-19T15:25:25.038Z,11.90
2019-01-19T15:28:12.151Z,8.37
2019-01-19T15:31:02.339Z,8.60
2019-01-19T15:33:44.089Z,11.03
2019-01-19T15:36:31.322Z,10.70
2019-01-19T15:39:14.301Z,10.67
2019-01-19T15:41:52.628Z,12.47
2019-01-19T15:44:54.741Z,8.17
2019-01-19T15:47:41.913Z,8.30
2019-01-19T15:50:23.841Z,9.23
2019-01-19T15:53:17.005Z,11.37
2019-01-19T15:56:06.906Z,8.43
2019-01-19T15:59:03.122Z,8.90
2019-01-19T16:01:52.836Z,11.87
2019-01-19T16:04:43.789Z,11.43
2019-01-19T16:07:29.695Z,11.70
2019-01-19T16:10:29.035Z,13.47
2019-01-19T16:13:00.605Z,10.80
2019-01-19T16:15:46.144Z,12.90
2019-01-19T16:18:32.033Z,10.47
2019-01-19T16:21:07.289Z,12.93
2019-01-19T16:23:54.599Z,18.63
2019-01-19T16:26:40.118Z,17.33
2019-01-19T16:29:36.454Z,14.70
2019-01-19T16:32:22.229Z,14.27
2019-01-19T16:35:09.491Z,18.70
2019-01-19T16:37:47.029Z,18.07
2019-01-19T16:40:21.083Z,17.40
2019-01-19T16:43:14.030Z,16.80
2019-01-19T16:46:06.997Z,14.00
2019-01-19T16:49:06.368Z,16.17
2019-01-19T16:51:54.637Z,18.57
2019-01-19T16:54:54.258Z,13.80
2019-01-19T16:57:29.550Z,13.90
2019-01-19T17:00:26.116Z,16.93
2019-01-19T17:03:22.184Z,16.37
2019-01-19T17:06:09.334Z,12.80
2019-01-19T17:08:51.985Z,15.57
2019-01-19T17:11:45.109Z,16.20
2019-01-19T17:14:18.756Z,14.50
2019-01-19T17:17:03.093Z,14.53
2019-01-19T17:19:48.730Z,14.93
2019-01-19T17:22:33.311Z,14.20
2019-01-19T17:25:19.145Z,20.63
2019-01-19T17:28:03.877Z,28.30
2019-01-19T17:30:53.784Z,16.70
2019-01-19T17:33:35.276Z,18.97
2019-01-19T17:36:18.848Z,13.90
2019-01-19T17:39:09.501Z,14.17
2019-01-19T17:41:59.395Z,16.73
2019-01-19T17:45:02.276Z,14.80
2019-01-19T17:47:35.879Z,13.47
2019-01-19T17:50:21.904Z,14.27
2019-01-19T17:53:05.702Z,16.70
2019-01-19T17:56:07.275Z,14.73
2019-01-19T17:59:03.566Z,14.40
2019-01-19T18:01:54.733Z,16.40
2019-01-19T18:04:44.672Z,16.03
2019-01-19T18:07:30.818Z,15.27
2019-01-19T18:10:24.109Z,12.93
2019-01-19T18:13:05.462Z,15.53
2019-01-19T18:15:41.569Z,20.57
2019-01-19T18:18:22.112Z,15.63
2019-01-19T18:21:24.738Z,16.57
2019-01-19T18:24:25.971Z,18.00
2019-01-19T18:27:09.055Z,18.30
2019-01-19T18:29:55.191Z,15.87
2019-01-19T18:32:38.827Z,16.33
2019-01-19T18:35:26.099Z,16.20
2019-01-19T18:38:12.218Z,15.13
2019-01-19T18:41:08.567Z,15.47
2019-01-19T18:44:01.708Z,18.80
2019-01-19T18:46:57.994Z,16.80
2019-01-19T18:49:48.176Z,14.10
2019-01-19T18:52:39.547Z,18.87
2019-01-19T18:55:19.315Z,21.03
2019-01-19T18:58:15.840Z,14.93
2019-01-19T19:01:18.786Z,16.50
2019-01-19T19:04:24.344Z,19.03
2019-01-19T19:07:23.615Z,30.80
2019-01-19T19:10:14.051Z,39.50
2019-01-19T19:13:00.246Z,24.97
2019-01-19T19:15:36.507Z,19.97
2019-01-19T19:18:28.719Z,23.43
2019-01-19T19:21:02.178Z,19.53
2019-01-19T19:23:39.471Z,14.77
2019-01-19T19:26:29.716Z,16.23
2019-01-19T19:29:19.689Z,15.93
2019-01-19T19:32:12.946Z,17.03
2019-01-19T19:34:49.601Z,14.37
2019-01-19T19:37:35.401Z,14.83
2019-01-19T19:40:09.961Z,15.57
2019-01-19T19:42:47.959Z,14.60
2019-01-19T19:45:44.052Z,14.30
2019-01-19T19:48:19.277Z,21.87
2019-01-19T19:51:12.272Z,17.33
2019-01-19T19:53:42.405Z,15.87
2019-01-19T19:56:09.524Z,14.77
2019-01-19T19:58:37.656Z,11.80
2019-01-19T20:01:07.042Z,21.50
2019-01-19T20:03:35.143Z,22.03
2019-01-19T20:06:03.279Z,20.17
2019-01-19T20:08:31.383Z,13.97
2019-01-19T20:10:59.482Z,15.67
2019-01-19T20:13:27.543Z,11.33
2019-01-19T20:15:57.750Z,13.33
2019-01-19T20:18:25.684Z,14.60
2019-01-19T20:20:53.806Z,14.27
2019-01-19T20:23:21.814Z,12.30
2019-01-19T20:25:49.949Z,13.10
2019-01-19T20:28:17.995Z,13.23
2019-01-19T20:30:46.214Z,14.73
2019-01-19T20:33:14.350Z,12.87
2019-01-19T20:35:42.415Z,15.50
2019-01-19T20:38:10.996Z,14.97
2019-01-19T20:40:39.156Z,12.90
2019-01-19T20:43:07.438Z,10.33
2019-01-19T20:45:35.827Z,12.67
2019-01-19T20:48:03.896Z,11.70
2019-01-19T20:50:31.990Z,12.20
2019-01-19T20:53:00.096Z,11.60
2019-01-19T20:55:28.163Z,15.73
2019-01-19T20:57:56.251Z,15.03
2019-01-19T21:00:24.378Z,12.37
2019-01-19T21:02:53.459Z,14.23
2019-01-19T21:05:21.644Z,15.23
2019-01-19T21:07:49.953Z,14.10
2019-01-19T21:10:18.167Z,13.13
2019-01-19T21:12:46.772Z,11.80
2019-01-19T21:15:15.352Z,13.07
2019-01-19T21:17:43.515Z,14.97
2019-01-19T21:20:12.063Z,13.93
2019-01-19T21:22:40.225Z,13.77
2019-01-19T21:25:08.870Z,14.70
2019-01-19T21:27:37.002Z,13.17
2019-01-19T21:30:06.332Z,13.93
2019-01-19T21:32:35.316Z,13.83
2019-01-19T21:35:03.529Z,12.60
2019-01-19T21:37:31.613Z,11.87
2019-01-19T21:39:59.707Z,13.47
2019-01-19T21:42:27.899Z,14.33
2019-01-19T21:44:55.978Z,10.33
2019-01-19T21:47:26.437Z,12.33
2019-01-19T21:49:54.567Z,11.70
2019-01-19T21:52:22.683Z,10.77
2019-01-19T21:54:50.803Z,12.27
2019-01-19T21:57:18.938Z,10.50
2019-01-19T21:59:46.995Z,11.10
2019-01-19T22:02:15.736Z,11.20
2019-01-19T22:04:43.857Z,13.40
2019-01-19T22:07:12.042Z,10.27
2019-01-19T22:09:40.233Z,11.23
2019-01-19T22:12:09.688Z,10.93
2019-01-19T22:14:38.126Z,11.73
2019-01-19T22:17:06.183Z,11.90
2019-01-19T22:19:34.254Z,10.10
2019-01-19T22:22:02.427Z,12.40
2019-01-19T22:24:30.741Z,10.23
2019-01-19T22:26:59.154Z,10.63
2019-01-19T22:29:27.134Z,12.03
2019-01-19T22:31:55.219Z,10.63
2019-01-19T22:34:23.521Z,9.07
2019-01-19T22:36:51.604Z,11.63
2019-01-19T22:39:19.651Z,10.63
2019-01-19T22:41:47.742Z,10.57
2019-01-19T22:44:15.764Z,9.50
2019-01-19T22:46:43.851Z,10.50
2019-01-19T22:49:12.051Z,13.33
2019-01-19T22:51:40.207Z,12.73
2019-01-19T22:54:08.272Z,8.63
2019-01-19T22:56:36.412Z,9.90
2019-01-19T22:59:04.535Z,11.80
2019-01-19T23:01:34.251Z,11.93
2019-01-19T23:04:02.295Z,13.00
2019-01-19T23:06:30.400Z,14.27
2019-01-19T23:08:58.530Z,12.70
2019-01-19T23:11:33.642Z,14.73
2019-01-19T23:13:56.438Z,12.77
2019-01-19T23:16:24.494Z,12.90
2019-01-19T23:18:52.557Z,10.63
2019-01-19T23:21:20.665Z,10.90
2019-01-19T23:23:48.741Z,9.83
2019-01-19T23:26:17.180Z,10.83
2019-01-19T23:28:45.288Z,14.37
2019-01-19T23:31:13.345Z,29.30
2019-01-19T23:33:41.457Z,40.63
2019-01-19T23:36:09.515Z,40.03
2019-01-19T23:38:37.616Z,27.03
2019-01-19T23:41:09.121Z,19.90
2019-01-19T23:43:35.478Z,15.43
2019-01-19T23:46:03.579Z,13.97
2019-01-19T23:48:31.695Z,14.50
2019-01-19T23:50:59.786Z,17.03
2019-01-19T23:53:27.893Z,16.43
2019-01-19T23:55:55.947Z,16.13
2019-01-19T23:58:24.006Z,14.13
